Back to Top

Language: 

My Weather Underground Personal Weather Station Historical Data with Graphs...

Delerius Weather Station Historical Data
Daily Summary for May 18, 2017 Units:  English    Metric   Both
« Previous Day
Next Day »
Daily Weekly Monthly Yearly Custom
  High: Low: Average:
Temperature: 64.6 °F 39.6 °F 53.2 °F
Dew Point: 50.8 °F 38.5 °F 46.8 °F
Humidity: 98 % 51 % 81 %
Wind Speed: 9.0 mph 0.0 mph 2.4 mph
Wind Gust: 14.0 mph - -
Wind:- - WNW
Pressure: 29.90 in 29.85 in -
Precipitation: 0.05 in    
Historical Graphs
 
 
Tabular Data for May 18, 2017
Time Temperature Dew Point Pressure Wind Wind Speed Wind Gust Humidity Rainfall Rate (Hourly) solar Conditions
00:01 48.2 °F 46.8 °F 29.87 in WNW 5.0 mph 8.0 mph 95 % 0.00 in 0 W/m2
00:06 48.0 °F 46.7 °F 29.87 in WNW 4.0 mph 8.0 mph 95 % 0.00 in 0 W/m2
00:11 47.8 °F 46.2 °F 29.87 in WNW 4.0 mph 8.0 mph 94 % 0.00 in 0 W/m2
00:16 47.8 °F 46.2 °F 29.87 in WNW 4.0 mph 7.0 mph 94 % 0.00 in 0 W/m2
00:21 47.7 °F 46.0 °F 29.87 in WNW 4.0 mph 7.0 mph 94 % 0.00 in 0 W/m2
00:26 47.5 °F 45.8 °F 29.87 in WNW 4.0 mph 8.0 mph 94 % 0.00 in 0 W/m2
00:31 47.5 °F 45.8 °F 29.86 in WNW 4.0 mph 8.0 mph 94 % 0.00 in 0 W/m2
00:36 47.5 °F 45.8 °F 29.87 in WNW 4.0 mph 9.0 mph 94 % 0.00 in 0 W/m2
00:41 47.3 °F 45.7 °F 29.87 in WNW 5.0 mph 9.0 mph 94 % 0.00 in 0 W/m2
00:46 47.1 °F 45.5 °F 29.87 in WNW 5.0 mph 8.0 mph 94 % 0.00 in 0 W/m2
00:51 47.1 °F 45.2 °F 29.86 in WNW 5.0 mph 8.0 mph 93 % 0.00 in 0 W/m2
00:56 46.9 °F 45.0 °F 29.86 in WNW 5.0 mph 8.0 mph 93 % 0.00 in 0 W/m2
01:01 46.9 °F 45.0 °F 29.86 in WNW 4.0 mph 8.0 mph 93 % 0.00 in 0 W/m2
01:06 46.8 °F 44.8 °F 29.86 in WNW 4.0 mph 8.0 mph 93 % 0.00 in 0 W/m2
01:11 46.8 °F 44.8 °F 29.86 in WNW 5.0 mph 8.0 mph 93 % 0.00 in 0 W/m2
01:16 46.6 °F 44.7 °F 29.86 in WNW 4.0 mph 8.0 mph 93 % 0.00 in 0 W/m2
01:21 46.6 °F 44.7 °F 29.86 in WNW 3.0 mph 7.0 mph 93 % 0.00 in 0 W/m2
01:26 46.4 °F 44.5 °F 29.86 in WNW 4.0 mph 7.0 mph 93 % 0.00 in 0 W/m2
01:31 46.2 °F 44.3 °F 29.86 in WNW 4.0 mph 7.0 mph 93 % 0.00 in 0 W/m2
01:36 46.2 °F 44.3 °F 29.86 in NW 3.0 mph 8.0 mph 93 % 0.00 in 0 W/m2
01:41 46.0 °F 44.1 °F 29.86 in NW 3.0 mph 8.0 mph 93 % 0.00 in 0 W/m2
01:46 45.9 °F 44.0 °F 29.86 in WNW 1.0 mph 6.0 mph 93 % 0.00 in 0 W/m2
01:56 45.3 °F 43.4 °F 29.86 in Calm     93 % 0.00 in 0 W/m2
02:01 45.1 °F 43.2 °F 29.85 in Calm   1.0 mph 93 % 0.00 in 0 W/m2
02:06 44.8 °F 42.9 °F 29.86 in Calm   1.0 mph 93 % 0.00 in 0 W/m2
02:11 44.4 °F 42.5 °F 29.86 in Calm     93 % 0.00 in 0 W/m2
02:16 44.2 °F 42.3 °F 29.86 in Calm   4.0 mph 93 % 0.00 in 0 W/m2
02:21 44.1 °F 42.2 °F 29.86 in WNW 1.0 mph 4.0 mph 93 % 0.00 in 0 W/m2
02:26 43.9 °F 42.0 °F 29.86 in WNW 1.0 mph 5.0 mph 93 % 0.00 in 0 W/m2
02:31 43.9 °F 42.3 °F 29.86 in WNW 1.0 mph 5.0 mph 94 % 0.00 in 0 W/m2
02:36 43.7 °F 42.1 °F 29.86 in WNW 1.0 mph 5.0 mph 94 % 0.00 in 0 W/m2
02:42 43.5 °F 41.9 °F 29.86 in Calm     94 % 0.00 in 0 W/m2
02:47 43.5 °F 41.9 °F 29.86 in Calm     94 % 0.00 in 0 W/m2
02:52 43.3 °F 41.7 °F 29.85 in Calm   1.0 mph 94 % 0.00 in 0 W/m2
02:57 43.3 °F 41.7 °F 29.85 in Calm   1.0 mph 94 % 0.00 in 0 W/m2
03:02 43.2 °F 41.6 °F 29.85 in Calm     94 % 0.00 in 0 W/m2
03:07 43.0 °F 41.4 °F 29.85 in Calm     94 % 0.00 in 0 W/m2
03:12 42.8 °F 41.2 °F 29.85 in Calm     94 % 0.00 in 0 W/m2
03:17 42.4 °F 40.8 °F 29.85 in Calm     94 % 0.00 in 0 W/m2
03:22 42.4 °F 40.8 °F 29.85 in Calm     94 % 0.00 in 0 W/m2
03:27 42.1 °F 40.5 °F 29.85 in Calm     94 % 0.00 in 0 W/m2
03:32 41.9 °F 40.6 °F 29.85 in Calm     95 % 0.00 in 0 W/m2
03:37 41.7 °F 40.1 °F 29.85 in Calm     94 % 0.00 in 0 W/m2
03:42 41.5 °F 40.2 °F 29.86 in Calm   1.0 mph 95 % 0.00 in 0 W/m2
03:47 41.4 °F 39.8 °F 29.85 in Calm   1.0 mph 94 % 0.00 in 0 W/m2
03:52 41.2 °F 39.9 °F 29.86 in Calm     95 % 0.00 in 0 W/m2
03:57 41.2 °F 39.9 °F 29.85 in Calm     95 % 0.00 in 0 W/m2
04:02 41.0 °F 39.7 °F 29.85 in Calm     95 % 0.00 in 0 W/m2
04:07 40.8 °F 39.5 °F 29.85 in Calm     95 % 0.00 in 0 W/m2
04:12 40.6 °F 39.3 °F 29.85 in Calm     95 % 0.00 in 0 W/m2
04:17 40.5 °F 39.1 °F 29.86 in Calm     95 % 0.00 in 0 W/m2
04:22 40.5 °F 39.1 °F 29.86 in Calm     95 % 0.00 in 0 W/m2
04:27 40.3 °F 39.0 °F 29.86 in Calm     95 % 0.00 in 0 W/m2
04:32 40.3 °F 39.0 °F 29.86 in Calm     95 % 0.00 in 0 W/m2
04:37 40.3 °F 39.2 °F 29.86 in Calm   1.0 mph 96 % 0.00 in 0 W/m2
04:42 40.3 °F 39.2 °F 29.86 in Calm   1.0 mph 96 % 0.00 in 0 W/m2
04:47 40.3 °F 39.2 °F 29.85 in Calm     96 % 0.00 in 0 W/m2
04:52 40.3 °F 39.2 °F 29.85 in Calm     96 % 0.00 in 0 W/m2
04:57 40.3 °F 39.2 °F 29.85 in Calm     96 % 0.00 in 0 W/m2
05:02 40.1 °F 39.1 °F 29.85 in Calm     96 % 0.00 in 0 W/m2
05:07 40.1 °F 39.1 °F 29.85 in Calm     96 % 0.00 in 5 W/m2
05:12 39.9 °F 38.9 °F 29.85 in Calm     96 % 0.00 in 7 W/m2
05:17 39.7 °F 38.7 °F 29.85 in Calm     96 % 0.00 in 9 W/m2
05:22 39.7 °F 38.7 °F 29.86 in Calm     96 % 0.00 in 11 W/m2
05:27 39.7 °F 38.7 °F 29.86 in Calm     96 % 0.00 in 14 W/m2
05:32 39.7 °F 38.7 °F 29.86 in Calm     96 % 0.00 in 16 W/m2
05:37 39.7 °F 38.7 °F 29.85 in Calm     96 % 0.00 in 18 W/m2
05:42 39.6 °F 38.5 °F 29.85 in Calm     96 % 0.00 in 18 W/m2
05:47 39.7 °F 38.7 °F 29.85 in Calm     96 % 0.00 in 19 W/m2
05:52 40.1 °F 39.3 °F 29.86 in Calm     97 % 0.00 in 21 W/m2
05:57 40.3 °F 39.5 °F 29.86 in Calm     97 % 0.00 in 23 W/m2
06:02 40.8 °F 40.0 °F 29.86 in Calm     97 % 0.00 in 25 W/m2
06:03 40.8 °F 40.0 °F 29.86 in Calm     97 % 0.00 in 33 W/m2
06:08 41.2 °F 40.4 °F 29.86 in Calm     97 % 0.00 in 109 W/m2
06:13 41.5 °F 40.8 °F 29.86 in Calm     97 % 0.00 in 53 W/m2
06:18 42.1 °F 41.3 °F 29.86 in Calm     97 % 0.00 in 47 W/m2
06:23 42.4 °F 41.9 °F 29.86 in Calm     98 % 0.00 in 142 W/m2
06:28 43.3 °F 42.8 °F 29.86 in Calm   1.0 mph 98 % 0.00 in 100 W/m2
06:33 44.1 °F 43.5 °F 29.86 in Calm   1.0 mph 98 % 0.00 in 60 W/m2
06:38 44.8 °F 44.3 °F 29.86 in Calm     98 % 0.00 in 40 W/m2
06:43 45.3 °F 44.8 °F 29.86 in Calm     98 % 0.00 in 74 W/m2
06:48 45.7 °F 45.1 °F 29.86 in Calm     98 % 0.00 in 39 W/m2
06:53 46.2 °F 45.7 °F 29.87 in Calm     98 % 0.00 in 39 W/m2
06:58 46.6 °F 46.0 °F 29.87 in Calm     98 % 0.00 in 40 W/m2
07:03 46.8 °F 46.2 °F 29.87 in Calm     98 % 0.00 in 42 W/m2
07:09 47.1 °F 46.6 °F 29.87 in Calm     98 % 0.00 in 190 W/m2
07:14 47.8 °F 47.3 °F 29.87 in Calm   1.0 mph 98 % 0.00 in 251 W/m2
07:19 48.4 °F 47.8 °F 29.87 in Calm   2.0 mph 98 % 0.00 in 264 W/m2
07:24 48.9 °F 48.4 °F 29.88 in Calm   5.0 mph 98 % 0.00 in 276 W/m2
07:29 49.6 °F 49.1 °F 29.88 in WNW 1.0 mph 5.0 mph 98 % 0.00 in 287 W/m2
07:34 50.0 °F 49.5 °F 29.88 in Calm   4.0 mph 98 % 0.00 in 302 W/m2
07:39 50.5 °F 50.0 °F 29.88 in Calm   2.0 mph 98 % 0.00 in 316 W/m2
07:44 51.3 °F 50.4 °F 29.88 in Calm   2.0 mph 97 % 0.00 in 332 W/m2
07:49 51.4 °F 50.3 °F 29.88 in WNW 1.0 mph 5.0 mph 96 % 0.00 in 352 W/m2
07:54 51.8 °F 50.7 °F 29.88 in WNW 1.0 mph 5.0 mph 96 % 0.00 in 367 W/m2
07:59 52.2 °F 50.8 °F 29.88 in WNW 2.0 mph 5.0 mph 95 % 0.00 in 381 W/m2
08:04 52.3 °F 50.7 °F 29.88 in West 3.0 mph 9.0 mph 94 % 0.00 in 417 W/m2
08:09 52.5 °F 50.0 °F 29.88 in WSW 6.0 mph 9.0 mph 91 % 0.00 in 288 W/m2
08:14 52.9 °F 50.3 °F 29.89 in West 7.0 mph 11.0 mph 91 % 0.00 in 381 W/m2
08:19 53.4 °F 50.6 °F 29.89 in West 7.0 mph 11.0 mph 90 % 0.00 in 316 W/m2
08:24 53.6 °F 50.1 °F 29.89 in West 8.0 mph 13.0 mph 88 % 0.00 in 213 W/m2
08:29 53.4 °F 49.6 °F 29.89 in West 9.0 mph 14.0 mph 87 % 0.00 in 230 W/m2
08:34 53.4 °F 49.3 °F 29.89 in West 9.0 mph 14.0 mph 86 % 0.00 in 183 W/m2
08:39 53.2 °F 49.2 °F 29.89 in West 9.0 mph 14.0 mph 86 % 0.00 in 232 W/m2
08:44 52.9 °F 48.8 °F 29.89 in West 9.0 mph 13.0 mph 86 % 0.00 in 178 W/m2
08:49 52.5 °F 48.5 °F 29.89 in West 8.0 mph 13.0 mph 86 % 0.00 in 195 W/m2
08:54 52.3 °F 48.3 °F 29.90 in West 7.0 mph 13.0 mph 86 % 0.00 in 237 W/m2
08:59 52.5 °F 48.8 °F 29.90 in West 7.0 mph 12.0 mph 87 % 0.00 in 253 W/m2
09:04 52.9 °F 49.1 °F 29.90 in West 6.0 mph 12.0 mph 87 % 0.00 in 209 W/m2
09:09 53.1 °F 49.0 °F 29.90 in West 6.0 mph 12.0 mph 86 % 0.00 in 360 W/m2
09:14 53.6 °F 49.2 °F 29.90 in West 6.0 mph 10.0 mph 85 % 0.00 in 707 W/m2
09:19 54.1 °F 49.7 °F 29.90 in West 5.0 mph 10.0 mph 85 % 0.00 in 633 W/m2
09:24 54.9 °F 50.1 °F 29.90 in West 5.0 mph 9.0 mph 84 % 0.00 in 694 W/m2
09:29 55.2 °F 49.8 °F 29.90 in West 5.0 mph 9.0 mph 82 % 0.00 in 308 W/m2
09:34 55.4 °F 49.3 °F 29.89 in West 6.0 mph 11.0 mph 80 % 0.00 in 250 W/m2
09:39 55.6 °F 49.5 °F 29.89 in WSW 7.0 mph 11.0 mph 80 % 0.00 in 828 W/m2
09:44 55.8 °F 49.7 °F 29.89 in West 5.0 mph 11.0 mph 80 % 0.00 in 227 W/m2
09:49 56.3 °F 49.9 °F 29.89 in WNW 5.0 mph 11.0 mph 79 % 0.00 in 227 W/m2
09:54 56.7 °F 49.9 °F 29.89 in WNW 5.0 mph 11.0 mph 78 % 0.00 in 814 W/m2
09:59 57.6 °F 50.4 °F 29.89 in WNW 6.0 mph 12.0 mph 77 % 0.00 in 789 W/m2
10:04 58.1 °F 50.2 °F 29.89 in WNW 6.0 mph 12.0 mph 75 % 0.00 in 881 W/m2
10:09 58.3 °F 50.0 °F 29.89 in West 7.0 mph 14.0 mph 74 % 0.00 in 501 W/m2
10:14 58.6 °F 50.7 °F 29.89 in West 7.0 mph 14.0 mph 75 % 0.00 in 768 W/m2
10:19 59.0 °F 50.7 °F 29.89 in West 6.0 mph 11.0 mph 74 % 0.00 in 773 W/m2
10:24 59.2 °F 50.2 °F 29.89 in WSW 6.0 mph 11.0 mph 72 % 0.00 in 791 W/m2
10:29 59.0 °F 49.6 °F 29.89 in WSW 6.0 mph 11.0 mph 71 % 0.00 in 828 W/m2
10:30 59.0 °F 49.6 °F 29.89 in WSW 6.0 mph 11.0 mph 71 % 0.00 in 842 W/m2
10:35 59.2 °F 50.5 °F 29.89 in WSW 7.0 mph 13.0 mph 73 % 0.00 in 865 W/m2
10:40 59.7 °F 49.9 °F 29.89 in West 6.0 mph 13.0 mph 70 % 0.00 in 963 W/m2
10:45 60.3 °F 50.0 °F 29.89 in West 7.0 mph 13.0 mph 69 % 0.00 in 991 W/m2
10:50 60.4 °F 50.2 °F 29.89 in West 7.0 mph 11.0 mph 69 % 0.00 in 237 W/m2
10:55 60.3 °F 50.0 °F 29.89 in West 6.0 mph 9.0 mph 69 % 0.00 in 229 W/m2
11:00 60.3 °F 49.7 °F 29.89 in WNW 4.0 mph 9.0 mph 68 % 0.00 in 561 W/m2
11:05 60.6 °F 50.0 °F 29.89 in WNW 4.0 mph 10.0 mph 68 % 0.00 in 220 W/m2
11:10 60.8 °F 49.8 °F 29.89 in WNW 4.0 mph 10.0 mph 67 % 0.00 in 974 W/m2
11:15 60.6 °F 49.2 °F 29.89 in WNW 4.0 mph 9.0 mph 66 % 0.00 in 287 W/m2
11:20 60.4 °F 49.8 °F 29.89 in West 5.0 mph 9.0 mph 68 % 0.00 in 1113 W/m2
11:25 60.8 °F 49.4 °F 29.89 in West 5.0 mph 9.0 mph 66 % 0.00 in 1016 W/m2
11:30 61.0 °F 49.5 °F 29.89 in West 5.0 mph 9.0 mph 66 % 0.00 in 327 W/m2
11:35 61.2 °F 49.3 °F 29.89 in West 5.0 mph 9.0 mph 65 % 0.00 in 301 W/m2
11:40 61.3 °F 49.5 °F 29.89 in West 4.0 mph 10.0 mph 65 % 0.00 in 473 W/m2
11:45 61.2 °F 48.9 °F 29.89 in WSW 5.0 mph 10.0 mph 64 % 0.00 in 269 W/m2
11:50 60.6 °F 48.4 °F 29.89 in West 6.0 mph 11.0 mph 64 % 0.00 in 267 W/m2
11:55 60.4 °F 49.0 °F 29.88 in West 5.0 mph 11.0 mph 66 % 0.00 in 274 W/m2
12:00 60.6 °F 49.6 °F 29.88 in WNW 5.0 mph 9.0 mph 67 % 0.00 in 1055 W/m2
12:05 61.0 °F 49.1 °F 29.88 in NW 5.0 mph 9.0 mph 65 % 0.00 in 294 W/m2
12:10 61.2 °F 48.9 °F 29.88 in WNW 5.0 mph 9.0 mph 64 % 0.00 in 592 W/m2
12:15 61.5 °F 49.6 °F 29.88 in WNW 3.0 mph 8.0 mph 65 % 0.00 in 1171 W/m2
12:20 61.9 °F 48.7 °F 29.88 in West 2.0 mph 6.0 mph 62 % 0.00 in 1164 W/m2
12:25 62.6 °F 49.0 °F 29.88 in West 5.0 mph 12.0 mph 61 % 0.00 in 309 W/m2
12:30 62.4 °F 48.3 °F 29.88 in West 6.0 mph 12.0 mph 60 % 0.00 in 381 W/m2
12:35 61.9 °F 47.4 °F 29.88 in West 5.0 mph 9.0 mph 59 % 0.00 in 462 W/m2
12:40 61.7 °F 47.7 °F 29.88 in West 4.0 mph 8.0 mph 60 % 0.00 in 360 W/m2
12:45 61.5 °F 47.1 °F 29.88 in West 4.0 mph 8.0 mph 59 % 0.00 in 380 W/m2
12:50 62.1 °F 48.0 °F 29.88 in West 4.0 mph 7.0 mph 60 % 0.00 in 1037 W/m2
12:55 62.8 °F 48.2 °F 29.87 in West 3.0 mph 7.0 mph 59 % 0.00 in 1048 W/m2
13:00 63.0 °F 47.5 °F 29.87 in WSW 3.0 mph 7.0 mph 57 % 0.00 in 487 W/m2
13:05 63.1 °F 47.2 °F 29.87 in West 4.0 mph 8.0 mph 56 % 0.00 in 487 W/m2
13:10 63.5 °F 48.0 °F 29.88 in WNW 4.0 mph 8.0 mph 57 % 0.00 in 668 W/m2
13:12 63.7 °F 47.7 °F 29.88 in WNW 4.0 mph 8.0 mph 56 % 0.00 in 390 W/m2
13:17 63.7 °F 46.2 °F 29.88 in West 4.0 mph 7.0 mph 53 % 0.00 in 403 W/m2
13:22 63.3 °F 47.8 °F 29.88 in West 4.0 mph 7.0 mph 57 % 0.00 in 403 W/m2
13:32 63.3 °F 46.9 °F 29.87 in WNW 3.0 mph 9.0 mph 55 % 0.00 in 476 W/m2
13:37 63.5 °F 47.5 °F 29.87 in NW 3.0 mph 7.0 mph 56 % 0.00 in 466 W/m2
13:42 63.9 °F 47.9 °F 29.86 in NW 3.0 mph 8.0 mph 56 % 0.00 in 995 W/m2
13:47 64.2 °F 47.7 °F 29.87 in WNW 4.0 mph 8.0 mph 55 % 0.00 in 930 W/m2
13:52 64.4 °F 47.4 °F 29.86 in WNW 3.0 mph 8.0 mph 54 % 0.00 in 958 W/m2
13:57 64.6 °F 46.6 °F 29.87 in WNW 1.0 mph 7.0 mph 52 % 0.00 in 981 W/m2
14:02 64.6 °F 46.0 °F 29.86 in WNW 1.0 mph 6.0 mph 51 % 0.00 in 923 W/m2
14:04 64.6 °F 46.6 °F 29.86 in West 2.0 mph 6.0 mph 52 % 0.00 in 227 W/m2
14:08 64.2 °F 46.2 °F 29.87 in West 3.0 mph 6.0 mph 52 % 0.00 in 311 W/m2
14:13 63.9 °F 46.9 °F 29.87 in SW 3.0 mph 7.0 mph 54 % 0.00 in 309 W/m2
14:18 63.3 °F 45.9 °F 29.87 in SSE 2.0 mph 8.0 mph 53 % 0.00 in 322 W/m2
14:23 63.3 °F 45.9 °F 29.87 in SW 3.0 mph 8.0 mph 53 % 0.00 in 357 W/m2
14:28 63.9 °F 47.4 °F 29.86 in West 4.0 mph 8.0 mph 55 % 0.00 in 1074 W/m2
14:33 64.2 °F 46.2 °F 29.86 in WNW 4.0 mph 8.0 mph 52 % 0.00 in 271 W/m2
14:38 64.0 °F 47.1 °F 29.86 in WNW 3.0 mph 8.0 mph 54 % 0.00 in 909 W/m2
14:43 64.4 °F 46.9 °F 29.86 in WNW 4.0 mph 8.0 mph 53 % 0.00 in 288 W/m2
14:48 64.2 °F 45.7 °F 29.86 in WNW 5.0 mph 8.0 mph 51 % 0.00 in 225 W/m2
14:53 63.9 °F 45.4 °F 29.86 in West 5.0 mph 8.0 mph 51 % 0.00 in 171 W/m2
14:59 63.7 °F 45.7 °F 29.86 in WNW 5.0 mph 8.0 mph 52 % 0.00 in 127 W/m2
15:04 63.7 °F 45.7 °F 29.86 in WNW 4.0 mph 7.0 mph 52 % 0.00 in 111 W/m2
15:09 63.3 °F 44.9 °F 29.86 in WNW 4.0 mph 6.0 mph 51 % 0.00 in 130 W/m2
15:19 62.8 °F 45.4 °F 29.86 in WNW 3.0 mph 5.0 mph 53 % 0.00 in 107 W/m2
15:24 62.4 °F 46.0 °F 29.86 in WNW 2.0 mph 5.0 mph 55 % 0.00 in 91 W/m2
15:28 62.4 °F 46.5 °F 29.86 in WNW 2.0 mph 5.0 mph 56 % 0.00 in 116 W/m2
15:33 62.4 °F 47.0 °F 29.86 in WNW 1.0 mph 4.0 mph 57 % 0.00 in 127 W/m2
15:38 62.4 °F 48.8 °F 29.86 in WNW 2.0 mph 5.0 mph 61 % 0.00 in 125 W/m2
15:43 62.1 °F 50.6 °F 29.86 in WNW 3.0 mph 6.0 mph 66 % 0.00 in 153 W/m2
15:48 61.9 °F 50.8 °F 29.86 in WNW 3.0 mph 7.0 mph 67 % 0.00 in 225 W/m2
15:53 61.5 °F 50.1 °F 29.87 in WNW 3.0 mph 7.0 mph 66 % 0.00 in 181 W/m2
15:58 61.3 °F 50.7 °F 29.87 in NW 2.0 mph 6.0 mph 68 % 0.00 in 139 W/m2
16:03 61.0 °F 48.7 °F 29.86 in WNW 3.0 mph 8.0 mph 64 % 0.00 in 165 W/m2
16:08 60.8 °F 48.1 °F 29.86 in WNW 5.0 mph 12.0 mph 63 % 0.00 in 162 W/m2
16:13 60.6 °F 47.9 °F 29.86 in WNW 5.0 mph 12.0 mph 63 % 0.00 in 288 W/m2
16:18 60.6 °F 47.5 °F 29.86 in WNW 5.0 mph 8.0 mph 62 % 0.00 in 213 W/m2
16:23 60.8 °F 47.3 °F 29.87 in WNW 5.0 mph 9.0 mph 61 % 0.00 in 137 W/m2
16:28 60.6 °F 47.1 °F 29.87 in WNW 5.0 mph 9.0 mph 61 % 0.00 in 111 W/m2
16:33 60.6 °F 47.5 °F 29.87 in NW 4.0 mph 8.0 mph 62 % 0.00 in 116 W/m2
16:38 60.4 °F 47.8 °F 29.87 in NW 4.0 mph 7.0 mph 63 % 0.00 in 83 W/m2
16:43 60.4 °F 49.0 °F 29.87 in NW 2.0 mph 7.0 mph 66 % 0.00 in 90 W/m2
16:48 60.1 °F 48.3 °F 29.87 in NNW 1.0 mph 5.0 mph 65 % 0.00 in 62 W/m2
16:53 59.7 °F 47.5 °F 29.86 in North 1.0 mph 5.0 mph 64 % 0.00 in 60 W/m2
16:58 59.5 °F 47.8 °F 29.86 in North 1.0 mph 5.0 mph 65 % 0.00 in 62 W/m2
17:03 59.4 °F 47.6 °F 29.86 in NNW 1.0 mph 6.0 mph 65 % 0.00 in 95 W/m2
17:08 59.2 °F 47.8 °F 29.87 in NNW 3.0 mph 9.0 mph 66 % 0.00 in 116 W/m2
17:13 59.4 °F 48.8 °F 29.87 in NW 2.0 mph 9.0 mph 68 % 0.00 in 98 W/m2
17:18 59.2 °F 48.6 °F 29.87 in NNW 2.0 mph 8.0 mph 68 % 0.00 in 97 W/m2
17:23 58.8 °F 47.1 °F 29.87 in NNW 4.0 mph 8.0 mph 65 % 0.00 in 104 W/m2
17:24 58.8 °F 47.5 °F 29.87 in NNW 4.0 mph 8.0 mph 66 % 0.00 in 107 W/m2
17:29 58.6 °F 46.5 °F 29.87 in North 5.0 mph 8.0 mph 64 % 0.00 in 135 W/m2
17:34 58.6 °F 47.3 °F 29.87 in North 5.0 mph 8.0 mph 66 % 0.00 in 142 W/m2
17:39 58.6 °F 46.9 °F 29.87 in North 5.0 mph 10.0 mph 65 % 0.00 in 125 W/m2
17:44 58.6 °F 47.3 °F 29.87 in North 5.0 mph 10.0 mph 66 % 0.00 in 111 W/m2
17:49 58.6 °F 47.3 °F 29.87 in NNW 4.0 mph 9.0 mph 66 % 0.00 in 102 W/m2
17:54 58.6 °F 47.3 °F 29.86 in North 5.0 mph 9.0 mph 66 % 0.00 in 100 W/m2
17:59 58.6 °F 47.3 °F 29.86 in North 4.0 mph 9.0 mph 66 % 0.00 in 93 W/m2
18:04 58.6 °F 47.3 °F 29.86 in North 5.0 mph 9.0 mph 66 % 0.00 in 79 W/m2
18:09 58.6 °F 47.3 °F 29.86 in North 5.0 mph 10.0 mph 66 % 0.00 in 76 W/m2
18:14 58.5 °F 47.1 °F 29.86 in NNW 5.0 mph 10.0 mph 66 % 0.00 in 72 W/m2
18:19 58.3 °F 47.0 °F 29.86 in NNW 5.0 mph 11.0 mph 66 % 0.00 in 62 W/m2
18:24 58.3 °F 47.0 °F 29.86 in NNW 5.0 mph 11.0 mph 66 % 0.00 in 58 W/m2
18:29 58.3 °F 47.0 °F 29.86 in NNW 4.0 mph 9.0 mph 66 % 0.00 in 56 W/m2
18:34 58.3 °F 47.4 °F 29.86 in NNW 3.0 mph 7.0 mph 67 % 0.00 in 51 W/m2
18:39 58.1 °F 47.2 °F 29.86 in NW 4.0 mph 8.0 mph 67 % 0.00 in 47 W/m2
18:44 58.1 °F 47.2 °F 29.87 in NW 4.0 mph 9.0 mph 67 % 0.00 in 47 W/m2
18:49 57.9 °F 47.0 °F 29.86 in NW 5.0 mph 9.0 mph 67 % 0.00 in 46 W/m2
18:54 57.9 °F 48.2 °F 29.86 in NW 4.0 mph 8.0 mph 70 % 0.00 in 44 W/m2
18:59 57.7 °F 48.4 °F 29.86 in NW 3.0 mph 7.0 mph 71 % 0.00 in 40 W/m2
19:04 57.7 °F 49.1 °F 29.86 in NW 2.0 mph 7.0 mph 73 % 0.00 in 33 W/m2
19:05 57.7 °F 49.1 °F 29.86 in NNW 1.0 mph 5.0 mph 73 % 0.00 in 32 W/m2
19:10 57.6 °F 49.0 °F 29.87 in Calm   5.0 mph 73 % 0.00 in 26 W/m2
19:15 57.4 °F 48.8 °F 29.87 in Calm   2.0 mph 73 % 0.00 in 26 W/m2
19:20 57.0 °F 49.2 °F 29.87 in Calm   4.0 mph 75 % 0.00 in 23 W/m2
19:21 57.2 °F 49.3 °F 29.87 in Calm   4.0 mph 75 % 0.00 in 23 W/m2
19:26 56.8 °F 49.4 °F 29.87 in ESE 2.0 mph 6.0 mph 76 % 0.00 in 16 W/m2
19:31 56.5 °F 50.0 °F 29.88 in SE 2.0 mph 6.0 mph 79 % 0.00 in 16 W/m2
19:36 55.9 °F 50.2 °F 29.88 in SE 1.0 mph 5.0 mph 81 % 0.00 in 18 W/m2
19:41 55.8 °F 50.3 °F 29.87 in Calm     82 % 0.00 in 18 W/m2
19:46 55.6 °F 50.5 °F 29.88 in Calm   1.0 mph 83 % 0.00 in 16 W/m2
19:51 55.2 °F 50.1 °F 29.88 in Calm   1.0 mph 83 % 0.00 in 16 W/m2
19:56 55.0 °F 50.3 °F 29.88 in Calm   1.0 mph 84 % 0.00 in 14 W/m2
20:01 54.9 °F 50.4 °F 29.88 in Calm     85 % 0.00 in 12 W/m2
20:06 54.7 °F 50.3 °F 29.88 in Calm     85 % 0.00 in 12 W/m2
20:11 54.5 °F 50.4 °F 29.88 in Calm     86 % 0.00 in 11 W/m2
20:16 54.3 °F 50.5 °F 29.88 in Calm     87 % 0.00 in 9 W/m2
20:21 54.0 °F 49.9 °F 29.88 in Calm     86 % 0.00 in 9 W/m2
20:26 53.8 °F 49.7 °F 29.88 in Calm   2.0 mph 86 % 0.00 in 9 W/m2
20:31 53.4 °F 49.3 °F 29.88 in Calm   2.0 mph 86 % 0.00 in 7 W/m2
20:36 53.4 °F 49.6 °F 29.88 in Calm   2.0 mph 87 % 0.00 in 5 W/m2
20:41 53.2 °F 49.5 °F 29.87 in Calm   2.0 mph 87 % 0.00 in 5 W/m2
20:46 53.2 °F 49.5 °F 29.87 in Calm   2.0 mph 87 % 0.01 in 0 W/m2
20:51 53.2 °F 49.8 °F 29.87 in Calm   2.0 mph 88 % 0.01 in 0 W/m2
20:56 53.2 °F 50.1 °F 29.87 in Calm   1.0 mph 89 % 0.01 in 0 W/m2
21:01 53.2 °F 50.1 °F 29.87 in Calm     89 % 0.01 in 0 W/m2
21:06 53.1 °F 49.9 °F 29.88 in Calm     89 % 0.01 in 0 W/m2
21:11 53.1 °F 50.2 °F 29.88 in Calm     90 % 0.01 in 0 W/m2
21:16 53.1 °F 50.5 °F 29.88 in Calm     91 % 0.01 in 0 W/m2
21:21 53.1 °F 50.5 °F 29.88 in Calm     91 % 0.01 in 0 W/m2
21:26 53.1 °F 50.5 °F 29.88 in Calm     91 % 0.01 in 0 W/m2
21:31 52.9 °F 50.3 °F 29.88 in Calm     91 % 0.01 in 0 W/m2
21:36 52.9 °F 50.3 °F 29.89 in Calm     91 % 0.01 in 0 W/m2
21:41 52.9 °F 50.3 °F 29.89 in Calm     91 % 0.01 in 0 W/m2
21:46 52.7 °F 50.4 °F 29.89 in Calm     92 % 0.00 in 0 W/m2
21:51 52.5 °F 50.3 °F 29.89 in Calm   3.0 mph 92 % 0.00 in 0 W/m2
21:56 52.3 °F 49.8 °F 29.89 in Calm   3.0 mph 91 % 0.00 in 0 W/m2
22:01 52.2 °F 49.6 °F 29.89 in ESE 1.0 mph 4.0 mph 91 % 0.01 in 0 W/m2
22:06 52.0 °F 49.4 °F 29.89 in ESE 1.0 mph 4.0 mph 91 % 0.01 in 0 W/m2
22:11 52.0 °F 49.7 °F 29.89 in Calm   3.0 mph 92 % 0.01 in 0 W/m2
22:16 52.2 °F 49.9 °F 29.89 in ESE 1.0 mph 4.0 mph 92 % 0.01 in 0 W/m2
22:22 52.0 °F 49.7 °F 29.89 in ESE 1.0 mph 4.0 mph 92 % 0.01 in 0 W/m2
22:27 52.0 °F 49.7 °F 29.89 in Calm   2.0 mph 92 % 0.01 in 0 W/m2
22:32 52.0 °F 50.0 °F 29.89 in Calm     93 % 0.01 in 0 W/m2
22:37 52.0 °F 50.0 °F 29.89 in Calm     93 % 0.02 in 0 W/m2
22:42 52.0 °F 50.0 °F 29.89 in Calm     93 % 0.02 in 0 W/m2
22:47 51.6 °F 49.7 °F 29.89 in Calm   2.0 mph 93 % 0.02 in 0 W/m2
22:52 51.4 °F 49.2 °F 29.89 in Calm   2.0 mph 92 % 0.02 in 0 W/m2
22:57 51.3 °F 49.0 °F 29.89 in Calm   3.0 mph 92 % 0.01 in 0 W/m2
23:02 51.3 °F 49.3 °F 29.89 in Calm   3.0 mph 93 % 0.01 in 0 W/m2
23:07 51.1 °F 49.1 °F 29.89 in Calm   1.0 mph 93 % 0.02 in 0 W/m2
23:12 51.1 °F 49.1 °F 29.89 in Calm   1.0 mph 93 % 0.02 in 0 W/m2
23:17 51.1 °F 49.1 °F 29.89 in Calm     93 % 0.02 in 0 W/m2
23:22 50.9 °F 48.9 °F 29.89 in Calm     93 % 0.02 in 0 W/m2
23:27 51.1 °F 49.1 °F 29.89 in Calm     93 % 0.02 in 0 W/m2
23:32 51.1 °F 49.1 °F 29.89 in Calm     93 % 0.02 in 0 W/m2
23:37 51.1 °F 49.4 °F 29.89 in Calm     94 % 0.02 in 0 W/m2
23:42 50.9 °F 49.2 °F 29.88 in Calm     94 % 0.02 in 0 W/m2
23:47 50.9 °F 49.2 °F 29.88 in Calm     94 % 0.02 in 0 W/m2
23:52 50.7 °F 48.8 °F 29.88 in Calm     93 % 0.02 in 0 W/m2
23:57 50.7 °F 49.1 °F 29.88 in Calm     94 % 0.02 in 0 W/m2
Delerius-Weather
Compliments of Weather Underground - 2.25 mb

Data updates at regular intervals.